Time;durP1;ratioP1;P1;durP2;ratioP2;P2;SDS_P1;SDS_P2;PMS_P1;PMS_P2;Temp;Humidity;BMP_temperature;BMP_pressure;BME280_temperature;BME280_humidity;BME280_pressure;Samples;Min_cycle;Max_cycle;Signal;HPM_P1;HPM_P2
2022/01/31 00:00:06;;;;;;;10.10;3.10;;;8.10;47.50;;;;;;5011352;28;20466;-86
2022/01/31 00:02:40;;;;;;;11.67;3.53;;;8.10;48.10;;;;;;5012400;28;21813;-86
2022/01/31 00:05:07;;;;;;;8.77;3.70;;;8.10;48.10;;;;;;5013272;28;20475;-87
2022/01/31 00:07:34;;;;;;;8.73;3.33;;;8.20;48.30;;;;;;5001788;28;20459;-86
2022/01/31 00:10:06;;;;;;;14.53;4.30;;;8.10;47.50;;;;;;4998919;28;20463;-87
2022/01/31 00:12:40;;;;;;;7.93;4.43;;;8.00;47.70;;;;;;5003344;28;20450;-86
2022/01/31 00:15:09;;;;;;;21.57;6.23;;;7.80;48.00;;;;;;5013681;28;20517;-87
2022/01/31 00:17:35;;;;;;;23.27;5.80;;;7.60;49.00;;;;;;4995042;28;20833;-87
2022/01/31 00:20:03;;;;;;;15.30;5.83;;;7.70;49.60;;;;;;5010717;28;20463;-87
2022/01/31 00:22:30;;;;;;;15.97;5.87;;;7.80;49.50;;;;;;5012777;28;20686;-87
2022/01/31 00:24:58;;;;;;;13.60;5.00;;;7.90;49.40;;;;;;4997007;28;20462;-87
2022/01/31 00:27:25;;;;;;;20.17;5.83;;;8.00;49.20;;;;;;5003156;28;20450;-86
2022/01/31 00:29:52;;;;;;;12.47;4.60;;;8.00;49.10;;;;;;5000198;28;20455;-86
2022/01/31 00:32:21;;;;;;;7.37;3.70;;;8.00;49.10;;;;;;4999190;28;20715;-85
2022/01/31 00:34:49;;;;;;;16.83;3.80;;;8.10;49.00;;;;;;5000712;28;20786;-86
2022/01/31 00:37:16;;;;;;;12.90;3.10;;;8.20;48.60;;;;;;5002350;28;20874;-87
2022/01/31 00:39:43;;;;;;;5.70;3.70;;;8.10;48.40;;;;;;5028094;28;20461;-87
2022/01/31 00:42:10;;;;;;;17.93;4.47;;;8.20;49.00;;;;;;5011532;28;20475;-86
2022/01/31 00:44:46;;;;;;;8.63;3.90;;;8.20;48.70;;;;;;5001782;28;20465;-86
2022/01/31 00:47:23;;;;;;;7.73;3.20;;;8.20;48.90;;;;;;5011308;28;21018;-87
2022/01/31 00:49:54;;;;;;;21.23;4.77;;;8.10;49.00;;;;;;5013018;28;20458;-86
2022/01/31 00:52:21;;;;;;;10.90;4.60;;;8.00;49.30;;;;;;5011902;28;21104;-86
2022/01/31 00:54:48;;;;;;;9.00;5.20;;;8.10;49.50;;;;;;5013982;28;20482;-87
2022/01/31 00:57:15;;;;;;;9.30;3.90;;;8.10;49.10;;;;;;5001169;28;20451;-87
2022/01/31 00:59:42;;;;;;;14.17;4.43;;;8.10;49.40;;;;;;5010671;28;20550;-87
2022/01/31 01:02:09;;;;;;;11.70;3.70;;;7.90;49.20;;;;;;4996224;28;20490;-87
2022/01/31 01:04:36;;;;;;;11.70;3.57;;;8.00;49.60;;;;;;4995101;28;20462;-87
2022/01/31 01:07:05;;;;;;;8.60;2.60;;;7.90;49.60;;;;;;5021576;28;20457;-86
2022/01/31 01:09:32;;;;;;;9.37;2.90;;;7.80;49.50;;;;;;4999778;28;20516;-87
2022/01/31 01:11:59;;;;;;;19.37;3.47;;;7.80;49.40;;;;;;5014306;28;20447;-87
2022/01/31 01:14:26;;;;;;;7.90;2.37;;;7.80;49.60;;;;;;5019277;28;20486;-87
2022/01/31 01:16:53;;;;;;;8.10;2.70;;;7.80;49.90;;;;;;5020456;28;20557;-86
2022/01/31 01:19:20;;;;;;;7.90;3.13;;;7.60;49.90;;;;;;5015415;28;20558;-87
2022/01/31 01:21:47;;;;;;;7.37;3.30;;;7.70;50.00;;;;;;5001680;28;20972;-87
2022/01/31 01:24:15;;;;;;;15.77;2.70;;;7.70;50.20;;;;;;5022294;28;21490;-86
2022/01/31 01:26:44;;;;;;;4.73;2.27;;;7.60;50.00;;;;;;5012894;28;20488;-86
2022/01/31 01:29:13;;;;;;;4.50;2.30;;;7.60;50.10;;;;;;5012541;28;20478;-86
2022/01/31 01:31:43;;;;;;;9.47;3.20;;;7.60;50.20;;;;;;5007951;28;20459;-87
2022/01/31 01:34:10;;;;;;;7.17;4.03;;;7.70;50.20;;;;;;4990430;28;20503;-86
2022/01/31 01:36:38;;;;;;;3.60;2.83;;;7.80;50.20;;;;;;5013035;28;20475;-86
2022/01/31 01:39:05;;;;;;;11.47;2.93;;;7.90;49.80;;;;;;5005386;28;20447;-87
2022/01/31 01:41:34;;;;;;;7.13;3.33;;;7.90;49.40;;;;;;4999883;28;20850;-87
2022/01/31 01:44:01;;;;;;;9.40;2.60;;;7.80;50.00;;;;;;5015816;28;20470;-86
2022/01/31 01:46:28;;;;;;;6.50;2.33;;;7.90;50.00;;;;;;5006449;28;20490;-87
2022/01/31 01:48:56;;;;;;;9.87;3.40;;;8.00;49.90;;;;;;4989832;28;20458;-87
2022/01/31 01:51:23;;;;;;;15.80;3.50;;;7.90;49.50;;;;;;5017088;28;20455;-86
2022/01/31 01:53:50;;;;;;;2.73;1.90;;;7.70;50.00;;;;;;5006702;28;20736;-87
2022/01/31 01:56:17;;;;;;;4.40;2.07;;;7.70;50.30;;;;;;5015428;28;20486;-87
2022/01/31 01:58:48;;;;;;;7.17;2.20;;;7.70;50.00;;;;;;4999680;28;20450;-87
2022/01/31 02:01:15;;;;;;;7.27;2.10;;;7.90;50.00;;;;;;5031150;28;20493;-86
2022/01/31 02:03:49;;;;;;;9.60;2.30;;;7.90;50.00;;;;;;5006925;28;20455;-87
2022/01/31 02:06:17;;;;;;;5.83;2.30;;;8.10;49.70;;;;;;5016838;28;20578;-86
2022/01/31 02:08:45;;;;;;;8.70;2.40;;;8.10;49.30;;;;;;4990655;28;20450;-87
2022/01/31 02:11:21;;;;;;;6.70;2.50;;;8.20;49.30;;;;;;5016579;28;20882;-86
2022/01/31 02:13:51;;;;;;;4.90;2.33;;;8.00;49.50;;;;;;4997889;28;20483;-86
2022/01/31 02:16:37;;;;;;;6.13;2.70;;;8.00;49.90;;;;;;5016564;28;20624;-86
2022/01/31 02:19:15;;;;;;;7.03;2.20;;;7.80;49.90;;;;;;5001121;28;20569;-87
2022/01/31 02:22:21;;;;;;;8.47;2.37;;;7.60;50.50;;;;;;4997324;28;20840;-85
2022/01/31 02:25:12;;;;;;;7.70;2.27;;;7.70;50.40;;;;;;4998640;28;20482;-87
2022/01/31 02:28:00;;;;;;;6.10;2.63;;;7.80;50.40;;;;;;4977630;28;20450;-86
2022/01/31 02:30:26;;;;;;;6.00;2.73;;;7.90;50.50;;;;;;5012028;28;20451;-87
2022/01/31 02:32:53;;;;;;;12.27;2.90;;;7.90;50.10;;;;;;4999611;28;20458;-87
2022/01/31 02:35:20;;;;;;;4.53;2.20;;;7.80;50.70;;;;;;4999779;28;20925;-85
2022/01/31 02:37:49;;;;;;;9.87;2.50;;;7.90;50.00;;;;;;5005195;28;20461;-87
2022/01/31 02:40:24;;;;;;;12.27;2.87;;;7.80;50.00;;;;;;5004392;28;20459;-86
2022/01/31 02:42:52;;;;;;;7.00;2.70;;;7.70;50.50;;;;;;5001004;28;22438;-86
2022/01/31 02:45:21;;;;;;;6.13;2.60;;;7.70;50.50;;;;;;5001577;28;20520;-86
2022/01/31 02:47:53;;;;;;;9.73;2.80;;;7.70;50.60;;;;;;5021897;28;20462;-87
2022/01/31 02:50:21;;;;;;;10.00;4.27;;;7.40;51.20;;;;;;4998779;28;20458;-85
2022/01/31 02:53:00;;;;;;;9.80;3.10;;;7.30;51.70;;;;;;5004134;28;20500;-86
2022/01/31 02:55:27;;;;;;;10.10;3.17;;;7.30;51.70;;;;;;5020704;28;20486;-86
2022/01/31 02:57:55;;;;;;;8.83;2.97;;;7.30;51.50;;;;;;5013975;28;20447;-87
2022/01/31 03:00:22;;;;;;;5.40;2.70;;;7.30;51.70;;;;;;4988248;28;20981;-86
2022/01/31 03:03:13;;;;;;;6.43;2.30;;;7.20;51.90;;;;;;5011680;28;20466;-87
2022/01/31 03:05:40;;;;;;;10.97;3.77;;;7.20;51.90;;;;;;5013565;28;20584;-86
2022/01/31 03:08:08;;;;;;;7.00;2.93;;;7.30;52.00;;;;;;5012311;28;20451;-86
2022/01/31 03:10:35;;;;;;;5.47;2.60;;;7.50;51.80;;;;;;5004180;28;20455;-87
2022/01/31 03:13:03;;;;;;;4.27;2.07;;;7.40;52.00;;;;;;5004492;28;20443;-86
2022/01/31 03:15:33;;;;;;;7.00;2.90;;;7.50;51.70;;;;;;5004800;28;20648;-86
2022/01/31 03:18:12;;;;;;;11.13;4.70;;;7.20;51.90;;;;;;4997792;28;20808;-86
2022/01/31 03:20:41;;;;;;;5.63;3.80;;;7.20;52.40;;;;;;5013789;28;20486;-86
2022/01/31 03:23:11;;;;;;;5.93;3.10;;;7.40;52.20;;;;;;4998211;28;20470;-87
2022/01/31 03:25:38;;;;;;;6.77;3.77;;;7.40;51.90;;;;;;5013186;28;20486;-85
2022/01/31 03:28:05;;;;;;;46.33;13.60;;;7.50;51.80;;;;;;5029212;28;20551;-87
2022/01/31 03:30:32;;;;;;;29.17;11.57;;;7.70;51.50;;;;;;5003813;28;20461;-86
2022/01/31 03:33:00;;;;;;;3.67;2.63;;;7.80;51.30;;;;;;4999877;28;20486;-86
2022/01/31 03:35:27;;;;;;;9.43;3.30;;;7.70;51.20;;;;;;5008412;28;20508;-86
2022/01/31 03:37:54;;;;;;;7.10;3.80;;;7.70;51.40;;;;;;4998724;28;20463;-86
2022/01/31 03:40:29;;;;;;;8.70;2.90;;;7.70;51.40;;;;;;5013641;28;20451;-86
2022/01/31 03:42:56;;;;;;;8.30;3.00;;;7.70;50.90;;;;;;5011942;28;20467;-86
2022/01/31 03:45:23;;;;;;;8.90;2.87;;;7.60;51.70;;;;;;5000263;28;20467;-85
2022/01/31 03:48:06;;;;;;;4.53;2.20;;;7.60;51.50;;;;;;5000485;28;21002;-86
2022/01/31 03:50:33;;;;;;;11.60;3.70;;;7.50;51.60;;;;;;5001817;28;20455;-86
2022/01/31 03:53:01;;;;;;;2.90;2.60;;;7.60;51.60;;;;;;5022783;28;20447;-86
2022/01/31 03:55:30;;;;;;;8.40;4.00;;;7.60;51.80;;;;;;4996141;28;20489;-86
2022/01/31 03:57:58;;;;;;;6.80;3.40;;;7.60;51.60;;;;;;5007490;28;20549;-86
2022/01/31 04:00:44;;;;;;;7.07;2.93;;;7.50;51.80;;;;;;4999835;28;20621;-86
2022/01/31 04:03:14;;;;;;;12.57;3.47;;;7.50;51.60;;;;;;5017294;28;20482;-85
2022/01/31 04:05:41;;;;;;;7.43;2.40;;;7.30;52.00;;;;;;4994290;28;20472;-85
2022/01/31 04:08:09;;;;;;;10.93;2.53;;;7.30;52.70;;;;;;5010129;28;20484;-86
2022/01/31 04:10:37;;;;;;;5.50;2.50;;;7.40;52.60;;;;;;5029135;28;20525;-86
2022/01/31 04:13:06;;;;;;;4.63;3.03;;;7.60;52.00;;;;;;5012762;28;20463;-86
2022/01/31 04:15:33;;;;;;;9.20;2.80;;;7.30;52.10;;;;;;4995640;28;21028;-86
2022/01/31 04:18:00;;;;;;;17.27;2.83;;;7.20;52.90;;;;;;5009412;28;20995;-86
2022/01/31 04:20:27;;;;;;;6.30;4.67;;;7.50;52.60;;;;;;5011877;28;20462;-86
2022/01/31 04:22:58;;;;;;;10.10;3.50;;;7.50;52.30;;;;;;5011340;28;20497;-85
2022/01/31 04:25:42;;;;;;;4.90;2.83;;;7.40;52.70;;;;;;5025381;28;20473;-85
2022/01/31 04:28:18;;;;;;;13.60;3.10;;;7.40;52.40;;;;;;4991791;28;20456;-86
2022/01/31 04:30:52;;;;;;;11.40;2.07;;;7.50;52.40;;;;;;5013757;28;20775;-85
2022/01/31 04:33:19;;;;;;;8.97;2.90;;;7.30;52.90;;;;;;5011606;28;20455;-86
2022/01/31 04:35:46;;;;;;;5.13;2.67;;;7.30;52.70;;;;;;5012879;28;20902;-85
2022/01/31 04:38:13;;;;;;;7.87;4.20;;;7.40;53.50;;;;;;5013040;28;21061;-85
2022/01/31 04:40:40;;;;;;;15.50;5.43;;;7.30;52.60;;;;;;5010119;28;20462;-85
2022/01/31 04:43:07;;;;;;;9.50;3.80;;;7.50;52.60;;;;;;5026395;28;20998;-86
2022/01/31 04:45:35;;;;;;;8.13;3.43;;;7.60;52.50;;;;;;5009810;28;20475;-85
2022/01/31 04:48:02;;;;;;;7.43;3.90;;;7.60;52.50;;;;;;4997966;28;20444;-85
2022/01/31 04:50:29;;;;;;;16.30;3.77;;;7.70;52.20;;;;;;5009674;28;20455;-86
2022/01/31 04:52:56;;;;;;;6.03;2.27;;;7.60;52.50;;;;;;5013433;28;20505;-86
2022/01/31 04:55:23;;;;;;;7.47;3.40;;;7.30;52.90;;;;;;5010872;28;21128;-85
2022/01/31 04:57:50;;;;;;;5.83;3.00;;;7.30;53.20;;;;;;5010227;28;20512;-86
2022/01/31 05:00:17;;;;;;;9.10;3.73;;;7.20;53.10;;;;;;5009444;28;21032;-85
2022/01/31 05:02:46;;;;;;;11.87;3.47;;;7.20;53.60;;;;;;5012168;28;20856;-85
2022/01/31 05:05:13;;;;;;;7.40;2.93;;;7.40;53.20;;;;;;5012123;28;20708;-85
2022/01/31 05:07:39;;;;;;;8.70;3.20;;;7.60;52.80;;;;;;5002220;28;20517;-85
2022/01/31 05:10:07;;;;;;;6.83;2.77;;;7.60;52.70;;;;;;5012087;28;21057;-86
2022/01/31 05:12:34;;;;;;;6.80;2.70;;;7.60;52.70;;;;;;4999001;28;20447;-85
2022/01/31 05:15:01;;;;;;;7.30;2.77;;;7.60;52.90;;;;;;5014195;28;20482;-85
2022/01/31 05:17:28;;;;;;;4.77;3.17;;;7.60;52.90;;;;;;4992146;28;20462;-85
2022/01/31 05:19:56;;;;;;;7.80;3.47;;;7.70;53.10;;;;;;5023129;28;20495;-85
2022/01/31 05:22:23;;;;;;;4.63;2.90;;;7.70;53.10;;;;;;5009334;28;20467;-84
2022/01/31 05:24:50;;;;;;;10.60;2.70;;;7.50;54.50;;;;;;5012867;28;21044;-85
2022/01/31 05:27:17;;;;;;;8.17;4.97;;;7.50;54.40;;;;;;4995613;28;20454;-85
2022/01/31 05:29:44;;;;;;;7.10;4.07;;;7.30;54.90;;;;;;5012707;28;20446;-85
2022/01/31 05:32:11;;;;;;;13.47;4.17;;;7.30;56.00;;;;;;5026581;28;20954;-84
2022/01/31 05:34:38;;;;;;;8.53;4.00;;;7.20;56.60;;;;;;5012995;28;20451;-84
2022/01/31 05:37:06;;;;;;;6.90;4.03;;;7.30;56.80;;;;;;5010705;28;20463;-84
2022/01/31 05:39:33;;;;;;;8.80;4.10;;;7.20;57.40;;;;;;5002340;28;20463;-85
2022/01/31 05:42:00;;;;;;;7.43;4.10;;;7.20;57.70;;;;;;5010982;28;20459;-86
2022/01/31 05:44:27;;;;;;;13.27;4.60;;;7.40;57.90;;;;;;5010569;28;20466;-84
2022/01/31 05:46:55;;;;;;;7.50;3.37;;;7.50;57.20;;;;;;5009543;28;20485;-83
2022/01/31 05:49:22;;;;;;;5.50;3.20;;;7.50;57.00;;;;;;5028381;28;20455;-84
2022/01/31 05:51:54;;;;;;;10.23;4.43;;;7.50;57.50;;;;;;5009992;28;20451;-85
2022/01/31 05:54:23;;;;;;;13.10;4.80;;;7.30;57.90;;;;;;5022673;28;20565;-83
2022/01/31 05:56:50;;;;;;;8.87;4.43;;;7.10;58.70;;;;;;5016123;28;20486;-85
2022/01/31 05:59:17;;;;;;;13.97;4.20;;;7.20;58.60;;;;;;5011819;28;20450;-86
2022/01/31 06:01:44;;;;;;;7.30;4.17;;;7.30;58.80;;;;;;5017393;28;20458;-85
2022/01/31 06:04:11;;;;;;;10.90;5.03;;;7.20;58.90;;;;;;5016704;28;20471;-85
2022/01/31 06:06:38;;;;;;;17.10;5.70;;;7.20;58.70;;;;;;5012570;28;20479;-86
2022/01/31 06:09:06;;;;;;;6.70;4.90;;;7.30;58.70;;;;;;5013655;28;20453;-85
2022/01/31 06:11:35;;;;;;;7.27;4.47;;;7.20;59.30;;;;;;4996460;28;20862;-86
2022/01/31 06:14:03;;;;;;;12.87;4.67;;;7.20;58.80;;;;;;5013123;28;20474;-86
2022/01/31 06:16:30;;;;;;;5.03;3.90;;;7.20;59.00;;;;;;5014611;28;20471;-85
2022/01/31 06:18:58;;;;;;;16.73;3.90;;;7.10;59.80;;;;;;5016318;28;20467;-87
2022/01/31 06:21:24;;;;;;;7.10;5.30;;;6.90;59.90;;;;;;5013190;28;20469;-86
2022/01/31 06:23:52;;;;;;;11.23;4.50;;;6.90;60.10;;;;;;5017206;28;20896;-87
2022/01/31 06:26:20;;;;;;;9.03;4.40;;;6.90;60.20;;;;;;5012225;28;20482;-86
2022/01/31 06:28:58;;;;;;;5.53;4.20;;;6.90;60.90;;;;;;4998935;28;20990;-85
2022/01/31 06:31:30;;;;;;;13.80;5.50;;;6.70;61.50;;;;;;5016801;28;20454;-85
2022/01/31 06:33:57;;;;;;;7.60;4.20;;;6.60;61.70;;;;;;5029053;28;20502;-86
2022/01/31 06:36:24;;;;;;;3.63;3.00;;;6.50;62.20;;;;;;5010855;28;20501;-85
2022/01/31 06:38:52;;;;;;;11.43;4.23;;;6.40;62.60;;;;;;5013953;28;21048;-85
2022/01/31 06:41:19;;;;;;;3.83;3.10;;;6.30;63.40;;;;;;5012482;28;20462;-85
2022/01/31 06:43:46;;;;;;;6.07;4.20;;;6.20;63.90;;;;;;5024470;28;20826;-86
2022/01/31 06:46:15;;;;;;;9.17;3.97;;;6.40;63.90;;;;;;5016002;28;20844;-86
2022/01/31 06:48:42;;;;;;;11.17;3.93;;;6.40;63.50;;;;;;5010454;28;20463;-86
2022/01/31 06:51:09;;;;;;;6.20;4.90;;;6.50;63.40;;;;;;5024107;28;21025;-86
2022/01/31 06:53:36;;;;;;;12.70;2.60;;;6.40;63.90;;;;;;5008337;28;20481;-85
2022/01/31 06:56:07;;;;;;;4.13;2.93;;;6.40;64.10;;;;;;5010304;28;21012;-85
2022/01/31 06:58:38;;;;;;;6.87;2.70;;;6.20;64.90;;;;;;5007601;28;20479;-85
2022/01/31 07:01:05;;;;;;;3.50;3.20;;;6.20;65.40;;;;;;5023661;28;20904;-86
2022/01/31 07:03:36;;;;;;;3.13;2.60;;;6.10;65.40;;;;;;4993080;28;20478;-86
2022/01/31 07:06:04;;;;;;;2.53;2.27;;;6.20;65.70;;;;;;4995456;28;20475;-85
2022/01/31 07:08:31;;;;;;;3.40;3.07;;;6.30;65.60;;;;;;5011410;28;21014;-85
2022/01/31 07:10:58;;;;;;;2.67;2.47;;;6.60;64.80;;;;;;5000564;28;20439;-86
2022/01/31 07:13:36;;;;;;;2.73;2.40;;;6.60;64.70;;;;;;5010268;28;20477;-86
2022/01/31 07:16:04;;;;;;;1.83;1.53;;;6.40;64.70;;;;;;4994707;28;20475;-86
2022/01/31 07:18:34;;;;;;;7.93;2.93;;;6.30;65.50;;;;;;5013984;28;20515;-87
2022/01/31 07:21:02;;;;;;;2.93;2.27;;;6.50;65.20;;;;;;5028366;28;20454;-86
2022/01/31 07:23:39;;;;;;;5.50;2.40;;;6.40;65.20;;;;;;4997605;28;20533;-86
2022/01/31 07:26:06;;;;;;;3.00;2.70;;;6.40;66.00;;;;;;5007548;28;20502;-87
2022/01/31 07:28:33;;;;;;;4.10;3.70;;;6.50;65.90;;;;;;4992124;28;20457;-86
2022/01/31 07:31:00;;;;;;;2.93;2.00;;;6.60;65.50;;;;;;5011658;28;20927;-87
2022/01/31 07:33:27;;;;;;;3.30;2.70;;;6.60;65.00;;;;;;5012580;28;21297;-86
2022/01/31 07:35:56;;;;;;;2.43;2.23;;;6.50;65.90;;;;;;5009983;28;20478;-86
2022/01/31 07:38:24;;;;;;;2.83;1.93;;;6.40;66.00;;;;;;5016880;28;20466;-87
2022/01/31 07:40:57;;;;;;;3.00;2.03;;;6.50;66.40;;;;;;5007317;28;20485;-86
2022/01/31 07:43:24;;;;;;;2.80;2.03;;;6.50;65.70;;;;;;5024989;28;20560;-87
2022/01/31 07:45:51;;;;;;;3.77;3.57;;;6.50;66.30;;;;;;5015975;28;20630;-87
2022/01/31 07:48:18;;;;;;;2.50;2.33;;;6.60;66.30;;;;;;5002243;28;20552;-87
2022/01/31 07:50:45;;;;;;;4.17;1.93;;;6.80;66.10;;;;;;5025170;28;20826;-87
2022/01/31 07:53:14;;;;;;;3.83;2.50;;;6.90;65.80;;;;;;5010491;28;20564;-87
2022/01/31 07:55:41;;;;;;;3.40;2.63;;;7.10;65.00;;;;;;4991075;28;20486;-88
2022/01/31 07:58:08;;;;;;;2.13;2.00;;;7.20;64.60;;;;;;5017115;28;20864;-89
2022/01/31 08:00:35;;;;;;;3.93;2.40;;;7.10;63.80;;;;;;5016901;28;20447;-88
2022/01/31 08:03:02;;;;;;;2.53;2.03;;;7.00;64.80;;;;;;5013342;28;20463;-88
2022/01/31 08:05:29;;;;;;;3.07;2.63;;;7.00;65.00;;;;;;4996733;28;21087;-87
2022/01/31 08:07:56;;;;;;;3.70;3.20;;;7.00;65.00;;;;;;5029588;28;20972;-87
2022/01/31 08:10:25;;;;;;;2.50;2.30;;;7.00;64.50;;;;;;5007092;28;20473;-86
2022/01/31 08:12:54;;;;;;;3.60;2.60;;;6.90;65.70;;;;;;5035183;28;20541;-87
2022/01/31 08:15:26;;;;;;;4.50;2.47;;;7.00;65.30;;;;;;5013257;28;20469;-87
2022/01/31 08:17:53;;;;;;;2.13;1.93;;;7.20;65.20;;;;;;5004700;28;20454;-88
2022/01/31 08:20:20;;;;;;;2.00;1.70;;;7.40;64.90;;;;;;5001252;28;20449;-87
2022/01/31 08:22:47;;;;;;;2.87;1.80;;;7.40;63.90;;;;;;5036686;28;20458;-87
2022/01/31 08:25:14;;;;;;;3.80;2.37;;;7.70;64.30;;;;;;5017466;28;20481;-87
2022/01/31 08:27:47;;;;;;;13.00;2.57;;;7.60;63.80;;;;;;5035107;28;20465;-86
2022/01/31 08:30:16;;;;;;;2.37;1.93;;;7.60;63.90;;;;;;5022776;28;20465;-87
2022/01/31 08:32:58;;;;;;;2.30;2.10;;;7.50;63.30;;;;;;5015725;28;20465;-87
2022/01/31 08:38:10;;;;;;;3.00;1.90;;;7.50;64.00;;;;;;5018303;28;20445;-87
2022/01/31 08:40:38;;;;;;;3.17;1.90;;;7.50;63.80;;;;;;5000905;28;20465;-86
2022/01/31 08:43:07;;;;;;;2.27;1.53;;;7.50;63.50;;;;;;5004113;28;20470;-88
2022/01/31 08:45:36;;;;;;;1.97;1.60;;;7.80;63.30;;;;;;5004896;28;20521;-89
2022/01/31 08:48:03;;;;;;;2.00;1.77;;;7.50;62.20;;;;;;5001465;28;20463;-88
2022/01/31 08:50:31;;;;;;;4.43;1.60;;;7.50;64.30;;;;;;5030599;28;20460;-86
2022/01/31 08:52:58;;;;;;;4.70;1.80;;;7.60;63.80;;;;;;5012587;28;20545;-87
2022/01/31 08:55:25;;;;;;;6.10;4.07;;;7.90;63.30;;;;;;5020635;28;21281;-87
2022/01/31 08:57:55;;;;;;;7.33;4.70;;;7.80;62.40;;;;;;5019030;28;20457;-88
2022/01/31 09:00:33;;;;;;;4.03;2.60;;;7.70;62.70;;;;;;4997803;28;20823;-87
2022/01/31 09:03:07;;;;;;;2.50;1.80;;;7.70;63.10;;;;;;5017715;28;20468;-87
2022/01/31 09:05:34;;;;;;;3.73;2.37;;;7.90;62.90;;;;;;5013451;28;20564;-88
2022/01/31 09:08:01;;;;;;;2.13;1.90;;;7.80;62.60;;;;;;5014272;28;20548;-87
2022/01/31 09:10:28;;;;;;;4.90;1.80;;;7.80;62.20;;;;;;5017379;28;20945;-87
2022/01/31 09:12:55;;;;;;;4.90;3.47;;;7.90;62.20;;;;;;4994576;28;20458;-88
2022/01/31 09:15:24;;;;;;;3.80;2.80;;;7.90;62.00;;;;;;5001432;28;20462;-87
2022/01/31 09:17:51;;;;;;;3.73;1.70;;;8.00;62.20;;;;;;5001036;28;20458;-87
2022/01/31 09:20:18;;;;;;;2.23;1.70;;;8.00;61.30;;;;;;5027767;28;20458;-85
2022/01/31 09:22:45;;;;;;;2.40;1.63;;;8.10;61.40;;;;;;5015389;28;20553;-87
2022/01/31 09:25:15;;;;;;;3.47;2.80;;;8.20;61.50;;;;;;5032820;28;20912;-87
2022/01/31 09:27:42;;;;;;;2.37;1.90;;;8.20;60.90;;;;;;5034717;28;20541;-87
2022/01/31 09:30:13;;;;;;;2.47;2.07;;;8.20;60.40;;;;;;5037375;28;20461;-87
2022/01/31 09:32:41;;;;;;;3.50;3.23;;;8.10;60.70;;;;;;5036180;28;20457;-86
2022/01/31 09:35:08;;;;;;;1.60;1.50;;;8.00;60.80;;;;;;5038373;28;20583;-87
2022/01/31 09:37:35;;;;;;;1.87;1.63;;;7.80;61.00;;;;;;5002946;28;20872;-87
2022/01/31 09:40:04;;;;;;;3.83;1.70;;;7.70;61.30;;;;;;5020664;28;20469;-85
2022/01/31 09:42:37;;;;;;;1.67;1.43;;;7.70;62.50;;;;;;5030426;28;20453;-86
2022/01/31 09:45:12;;;;;;;2.27;1.77;;;7.70;62.10;;;;;;5032229;28;20573;-87
2022/01/31 09:50:27;;;;;;;3.07;1.70;;;7.80;62.10;;;;;;5008104;28;20457;-86
2022/01/31 09:52:54;;;;;;;3.50;1.70;;;7.90;61.50;;;;;;5034691;28;20967;-87
2022/01/31 09:55:22;;;;;;;2.90;1.27;;;7.90;61.60;;;;;;5018567;28;21008;-86
2022/01/31 09:57:49;;;;;;;1.97;1.70;;;7.80;60.90;;;;;;5014643;28;21021;-86
2022/01/31 10:00:17;;;;;;;2.50;1.83;;;7.90;62.00;;;;;;5032512;28;20465;-87
2022/01/31 10:03:07;;;;;;;1.40;1.30;;;7.90;61.00;;;;;;5039347;28;20454;-88
2022/01/31 10:05:34;;;;;;;2.13;1.93;;;7.90;62.80;;;;;;5007075;28;20580;-87
2022/01/31 10:08:11;;;;;;;5.43;1.67;;;7.80;61.90;;;;;;5034258;28;20462;-87
2022/01/31 10:10:40;;;;;;;2.50;1.60;;;8.00;62.50;;;;;;5020977;28;20977;-86
2022/01/31 10:16:28;;;;;;;2.63;2.03;;;8.10;61.30;;;;;;5014840;28;20461;-87
2022/01/31 10:19:09;;;;;;;2.13;1.43;;;8.10;61.30;;;;;;4994265;28;20466;-86
2022/01/31 10:21:55;;;;;;;5.27;2.20;;;8.10;61.50;;;;;;5031299;28;21249;-86
2022/01/31 10:24:23;;;;;;;2.40;1.67;;;8.30;61.50;;;;;;5037490;28;20528;-85
2022/01/31 10:26:51;;;;;;;3.80;1.40;;;8.10;61.30;;;;;;5001183;28;20471;-86
2022/01/31 10:29:21;;;;;;;2.60;1.63;;;8.20;62.50;;;;;;5033904;28;20471;-85
2022/01/31 10:31:57;;;;;;;1.50;1.40;;;8.20;61.40;;;;;;5033825;28;20521;-85
2022/01/31 10:34:26;;;;;;;2.20;1.50;;;8.50;61.70;;;;;;5000133;28;20786;-85
2022/01/31 10:36:53;;;;;;;3.63;1.90;;;8.30;61.40;;;;;;5006466;28;20485;-86
2022/01/31 10:45:46;;;;;;;1.97;1.30;;;8.00;62.70;;;;;;5017180;28;20832;-85
2022/01/31 10:54:01;;;;;;;3.33;1.60;;;7.80;63.00;;;;;;5016039;28;20448;-86
2022/01/31 10:56:37;;;;;;;2.60;2.10;;;7.90;63.20;;;;;;5023866;28;20977;-87
2022/01/31 10:59:07;;;;;;;3.30;2.10;;;7.90;62.70;;;;;;5003874;28;20484;-86
2022/01/31 11:01:37;;;;;;;1.93;1.73;;;7.80;62.40;;;;;;5017114;28;20446;-86
2022/01/31 11:04:06;;;;;;;2.13;1.60;;;7.80;62.80;;;;;;5014827;28;20453;-86
2022/01/31 11:06:35;;;;;;;1.63;1.10;;;7.80;62.00;;;;;;5012674;28;20497;-85
2022/01/31 11:09:08;;;;;;;5.50;1.47;;;7.80;61.70;;;;;;5035691;28;20486;-87
2022/01/31 11:11:37;;;;;;;2.40;1.60;;;7.80;61.90;;;;;;5017765;28;20446;-86
2022/01/31 11:14:04;;;;;;;2.80;1.47;;;8.10;63.30;;;;;;5007656;28;20466;-86
2022/01/31 11:16:32;;;;;;;9.53;2.13;;;8.20;61.30;;;;;;5014023;28;20560;-86
2022/01/31 11:19:03;;;;;;;2.27;1.50;;;8.30;60.70;;;;;;4996113;28;20975;-86
2022/01/31 11:21:35;;;;;;;1.60;1.50;;;8.30;61.30;;;;;;5001294;28;20458;-87
2022/01/31 11:24:04;;;;;;;3.33;1.20;;;8.30;60.90;;;;;;5032402;28;20482;-84
2022/01/31 11:26:39;;;;;;;2.83;2.63;;;8.00;60.60;;;;;;5001840;28;20481;-85
2022/01/31 11:29:08;;;;;;;2.27;2.07;;;8.30;62.30;;;;;;5014563;28;20461;-86
2022/01/31 11:31:37;;;;;;;1.87;1.57;;;8.10;61.10;;;;;;5007622;28;20533;-85
2022/01/31 11:34:05;;;;;;;2.17;1.47;;;8.20;60.90;;;;;;5023999;28;20584;-86
2022/01/31 11:36:35;;;;;;;1.60;1.33;;;8.30;61.10;;;;;;5008569;28;20480;-87
2022/01/31 11:39:06;;;;;;;1.73;1.50;;;8.30;60.40;;;;;;5014317;28;20466;-87
2022/01/31 11:41:34;;;;;;;2.67;1.57;;;8.50;61.50;;;;;;5014244;28;20564;-83
2022/01/31 11:44:11;;;;;;;2.50;1.60;;;8.40;61.50;;;;;;5031309;28;20465;-86
2022/01/31 11:46:41;;;;;;;1.63;1.20;;;8.30;61.40;;;;;;5029791;28;20516;-89
2022/01/31 11:49:13;;;;;;;1.73;1.63;;;8.10;62.90;;;;;;5014783;28;21032;-87
2022/01/31 11:52:02;;;;;;;4.47;2.27;;;8.00;63.10;;;;;;5006193;28;20450;-86
2022/01/31 11:54:29;;;;;;;1.23;1.13;;;7.90;65.30;;;;;;5001029;28;20545;-86
2022/01/31 11:56:57;;;;;;;2.20;2.00;;;7.70;64.30;;;;;;4987264;28;20552;-86
2022/01/31 11:59:25;;;;;;;10.77;4.27;;;7.70;64.80;;;;;;4992546;28;20469;-86
2022/01/31 12:01:53;;;;;;;4.23;2.03;;;7.80;66.00;;;;;;5032216;28;20477;-86
2022/01/31 12:04:23;;;;;;;6.97;1.40;;;8.00;64.90;;;;;;5013742;28;20465;-85
2022/01/31 12:06:51;;;;;;;5.10;2.73;;;8.00;64.10;;;;;;5015543;28;20597;-86
2022/01/31 12:09:21;;;;;;;4.60;3.97;;;8.00;64.50;;;;;;5031227;28;20840;-87
2022/01/31 12:11:57;;;;;;;4.40;2.23;;;8.10;64.80;;;;;;4999262;28;20767;-86
2022/01/31 12:14:30;;;;;;;7.50;4.53;;;8.30;64.50;;;;;;5031169;28;20855;-86
2022/01/31 12:17:20;;;;;;;2.20;1.47;;;8.30;63.80;;;;;;5011263;28;20503;-85
2022/01/31 12:20:01;;;;;;;2.60;2.13;;;8.20;63.40;;;;;;5033399;28;20469;-87
2022/01/31 12:22:44;;;;;;;1.37;1.27;;;7.90;64.90;;;;;;5032217;28;20450;-86
2022/01/31 12:25:23;;;;;;;1.63;1.53;;;8.00;64.60;;;;;;4997488;28;20490;-86
2022/01/31 12:27:51;;;;;;;3.37;2.13;;;8.10;63.80;;;;;;5032044;28;20943;-86
2022/01/31 12:30:32;;;;;;;4.10;3.70;;;7.80;65.00;;;;;;4989018;28;20541;-86
2022/01/31 12:32:59;;;;;;;2.23;1.80;;;7.70;66.50;;;;;;5013977;28;20468;-85
2022/01/31 12:35:33;;;;;;;2.43;1.53;;;7.70;66.60;;;;;;5031541;28;20741;-85
2022/01/31 12:38:01;;;;;;;7.20;5.40;;;8.10;67.90;;;;;;5004799;28;20461;-86
2022/01/31 12:40:29;;;;;;;2.00;1.50;;;8.30;64.70;;;;;;4995100;28;20468;-86
2022/01/31 12:46:07;;;;;;;2.07;1.97;;;8.20;64.70;;;;;;5012439;28;20477;-85
2022/01/31 12:48:34;;;;;;;1.63;1.20;;;8.00;65.70;;;;;;5005568;28;20888;-87
2022/01/31 12:51:07;;;;;;;1.67;1.57;;;7.80;66.00;;;;;;5013372;28;22198;-86
2022/01/31 12:53:47;;;;;;;2.07;1.60;;;7.90;65.90;;;;;;5014101;28;20462;-87
2022/01/31 12:56:22;;;;;;;2.70;1.70;;;8.00;65.30;;;;;;5029702;28;20573;-86
2022/01/31 12:58:52;;;;;;;2.40;1.40;;;8.10;65.60;;;;;;4992097;28;20516;-87
2022/01/31 13:01:21;;;;;;;1.17;1.07;;;8.00;64.90;;;;;;5035517;28;20449;-86
2022/01/31 13:03:49;;;;;;;1.57;1.47;;;7.90;65.00;;;;;;5004376;28;20482;-86
2022/01/31 13:06:35;;;;;;;3.57;1.57;;;8.00;65.20;;;;;;5032558;28;20478;-86
2022/01/31 13:09:08;;;;;;;0.90;0.90;;;8.00;64.80;;;;;;5035764;28;20709;-86
2022/01/31 13:11:36;;;;;;;7.80;1.47;;;7.80;64.70;;;;;;5014955;28;20549;-86
2022/01/31 13:14:06;;;;;;;1.00;0.90;;;7.70;65.50;;;;;;5019157;28;20464;-86
2022/01/31 13:16:47;;;;;;;3.10;1.00;;;7.60;65.70;;;;;;5000803;28;20475;-85
2022/01/31 13:19:17;;;;;;;2.57;1.70;;;7.50;65.40;;;;;;5035772;28;20972;-86
2022/01/31 13:21:45;;;;;;;1.40;1.30;;;7.40;66.90;;;;;;5034221;28;20449;-86
2022/01/31 13:24:13;;;;;;;1.10;1.00;;;7.50;66.10;;;;;;5034075;28;20477;-86
2022/01/31 13:26:58;;;;;;;2.53;0.93;;;7.60;66.30;;;;;;5016900;28;20485;-86
2022/01/31 13:29:41;;;;;;;5.40;1.30;;;7.70;66.30;;;;;;5035198;28;20461;-86
2022/01/31 13:32:30;;;;;;;1.27;1.17;;;7.80;66.10;;;;;;5013621;28;20458;-86